Time;durP1;ratioP1;P1;durP2;ratioP2;P2;SDS_P1;SDS_P2;PMS_P1;PMS_P2;Temp;Humidity;BMP_temperature;BMP_pressure;BME280_temperature;BME280_humidity;BME280_pressure;Samples;Min_cycle;Max_cycle;Signal;HPM_P1;HPM_P2
2021/12/31 00:00:23;;;;;;;4.97;2.65;;;;;;;15.93;50.35;97482.06;5093538;28;20031;-29
2021/12/31 00:02:48;;;;;;;4.18;2.65;;;;;;;15.96;50.52;97480.41;5085758;28;20107;-29
2021/12/31 00:05:14;;;;;;;4.30;2.50;;;;;;;15.91;50.36;97487.19;5072793;28;20036;-29
2021/12/31 00:07:39;;;;;;;4.03;2.50;;;;;;;15.95;50.10;97484.38;5071800;28;20032;-29
2021/12/31 00:10:06;;;;;;;4.68;2.45;;;;;;;15.94;50.36;97483.59;5072065;28;20037;-29
2021/12/31 00:12:32;;;;;;;4.78;2.45;;;;;;;15.87;50.27;97478.31;5072266;28;20036;-29
2021/12/31 00:14:58;;;;;;;7.38;3.40;;;;;;;15.86;50.51;97484.22;5072786;28;20031;-28
2021/12/31 00:17:24;;;;;;;14.32;5.90;;;;;;;15.85;50.38;97485.44;5072766;28;20336;-30
2021/12/31 00:19:59;;;;;;;15.70;5.45;;;;;;;15.76;50.51;97483.34;5072624;28;20031;-29
2021/12/31 00:25:03;;;;;;;16.20;5.88;;;;;;;15.88;49.84;97485.34;5073014;28;20032;-29
2021/12/31 00:27:29;;;;;;;13.73;5.45;;;;;;;15.79;50.34;97483.25;5072697;28;20041;-29
2021/12/31 00:29:54;;;;;;;11.30;4.90;;;;;;;15.82;50.62;97486.31;5072718;28;20020;-29
2021/12/31 00:32:20;;;;;;;11.27;5.00;;;;;;;15.87;50.23;97485.75;5072751;28;20033;-31
2021/12/31 00:34:46;;;;;;;9.43;4.70;;;;;;;15.86;50.22;97489.69;5072909;28;20032;-29
2021/12/31 00:37:11;;;;;;;9.98;3.88;;;;;;;15.80;50.31;97490.25;5072578;28;20025;-29
2021/12/31 00:39:37;;;;;;;7.63;3.63;;;;;;;15.76;50.22;97491.56;5072463;28;20024;-28
2021/12/31 00:42:03;;;;;;;8.98;3.90;;;;;;;15.77;50.23;97490.34;5072587;28;20539;-29
2021/12/31 00:44:29;;;;;;;7.75;4.10;;;;;;;15.85;50.53;97488.94;5072416;28;20028;-29
2021/12/31 00:46:54;;;;;;;9.52;4.00;;;;;;;15.85;49.93;97502.59;5072535;28;20392;-29
2021/12/31 00:49:20;;;;;;;6.50;3.33;;;;;;;15.78;49.99;97497.34;5072556;28;20063;-29
2021/12/31 00:51:45;;;;;;;6.45;3.35;;;;;;;15.79;50.15;97507.09;5072413;28;20059;-30
2021/12/31 00:54:10;;;;;;;6.90;3.35;;;;;;;15.77;49.94;97506.75;5072399;28;20017;-29
2021/12/31 00:56:36;;;;;;;4.90;2.67;;;;;;;15.79;50.13;97499.66;5072551;28;20062;-29
2021/12/31 00:59:01;;;;;;;5.40;2.97;;;;;;;15.77;49.85;97506.75;5072440;28;20490;-29
2021/12/31 01:01:30;;;;;;;4.57;2.35;;;;;;;15.77;50.09;97504.78;5072297;28;20470;-29
2021/12/31 01:03:56;;;;;;;5.65;2.15;;;;;;;15.78;49.63;97506.34;5072404;28;20439;-28
2021/12/31 01:06:22;;;;;;;4.70;2.45;;;;;;;15.86;49.40;97508.84;5074253;28;20103;-29
2021/12/31 01:08:48;;;;;;;3.72;1.95;;;;;;;15.75;49.82;97514.63;5076011;28;20523;-29
2021/12/31 01:11:13;;;;;;;3.60;2.08;;;;;;;15.69;49.75;97521.84;5076012;28;20021;-28
2021/12/31 01:16:14;;;;;;;3.10;1.67;;;;;;;15.74;50.00;97516.59;5076136;28;20043;-29
2021/12/31 01:21:21;;;;;;;5.35;2.00;;;;;;;15.73;49.72;97525.22;5075649;28;20028;-29
2021/12/31 01:23:48;;;;;;;3.90;1.75;;;;;;;15.70;49.76;97523.38;5075944;28;20026;-29
2021/12/31 01:26:14;;;;;;;3.03;1.70;;;;;;;15.69;49.98;97511.69;5074577;28;20447;-29
2021/12/31 01:28:40;;;;;;;3.90;1.83;;;;;;;15.71;49.93;97517.44;5075584;28;20024;-29
2021/12/31 01:31:05;;;;;;;3.10;1.55;;;;;;;15.67;49.98;97518.78;5075737;28;20059;-29
2021/12/31 01:33:31;;;;;;;3.70;1.70;;;;;;;15.70;49.67;97528.84;5075811;28;20020;-29
2021/12/31 01:35:56;;;;;;;2.78;1.70;;;;;;;15.71;50.03;97536.59;5075328;28;20356;-28
2021/12/31 01:38:22;;;;;;;2.90;1.35;;;;;;;15.82;49.53;97530.84;5075465;28;20124;-30
2021/12/31 01:40:49;;;;;;;2.90;1.45;;;;;;;15.72;50.11;97526.44;5075561;28;20441;-29
2021/12/31 01:43:16;;;;;;;3.65;1.63;;;;;;;15.75;49.53;97528.31;5075259;28;20021;-29
2021/12/31 01:45:47;;;;;;;3.17;1.70;;;;;;;15.68;49.89;97536.72;5075344;28;20099;-30
2021/12/31 01:48:27;;;;;;;2.83;1.60;;;;;;;15.70;49.69;97537.06;5075187;28;20466;-28
2021/12/31 01:50:53;;;;;;;2.15;1.33;;;;;;;15.60;49.83;97527.94;5075242;28;20410;-28
2021/12/31 01:53:22;;;;;;;3.10;1.50;;;;;;;15.66;49.83;97533.66;5075380;28;20219;-30
2021/12/31 01:55:50;;;;;;;2.45;1.50;;;;;;;15.67;49.72;97529.72;5105353;28;20020;-29
2021/12/31 01:58:22;;;;;;;2.63;1.48;;;;;;;15.74;49.34;97532.25;5072935;28;20036;-30
2021/12/31 02:00:48;;;;;;;4.63;1.70;;;;;;;15.74;49.16;97533.00;5075225;28;20031;-29
2021/12/31 02:03:13;;;;;;;2.53;1.52;;;;;;;15.75;49.61;97536.50;5074990;28;20056;-29
2021/12/31 02:05:39;;;;;;;1.80;1.40;;;;;;;15.76;49.35;97540.78;5075100;28;20027;-28
2021/12/31 02:08:05;;;;;;;2.05;1.05;;;;;;;15.73;49.12;97539.66;5074880;28;20025;-29
2021/12/31 02:10:30;;;;;;;2.15;1.10;;;;;;;15.64;49.33;97544.25;5075026;28;20033;-30
2021/12/31 02:12:56;;;;;;;3.40;1.27;;;;;;;15.62;49.62;97544.66;5074700;28;20028;-29
2021/12/31 02:15:22;;;;;;;3.05;1.35;;;;;;;15.63;49.47;97542.72;5074871;28;20028;-29
2021/12/31 02:17:49;;;;;;;1.63;1.13;;;;;;;15.66;49.41;97553.56;5074125;28;20024;-29
2021/12/31 02:20:15;;;;;;;1.73;1.27;;;;;;;15.65;49.08;97549.28;5074708;28;20074;-29
2021/12/31 02:22:52;;;;;;;2.33;1.50;;;;;;;15.65;49.40;97546.56;5074503;28;20028;-29
2021/12/31 02:25:20;;;;;;;2.05;1.25;;;;;;;15.67;49.07;97546.88;5074477;28;20035;-29
2021/12/31 02:27:45;;;;;;;1.70;1.20;;;;;;;15.64;49.69;97550.47;5074755;28;20032;-30
2021/12/31 02:30:11;;;;;;;2.15;1.25;;;;;;;15.65;49.56;97552.00;5074510;28;20047;-29
2021/12/31 02:32:38;;;;;;;2.95;1.27;;;;;;;15.61;49.67;97558.78;5074514;28;20105;-29
2021/12/31 02:35:06;;;;;;;2.35;1.15;;;;;;;15.60;49.48;97551.75;5074386;28;20029;-29
2021/12/31 02:37:32;;;;;;;1.48;1.30;;;;;;;15.61;49.86;97558.78;5074238;28;20099;-29
2021/12/31 02:39:58;;;;;;;1.55;1.27;;;;;;;15.57;49.80;97560.84;5074187;28;20032;-29
2021/12/31 02:42:23;;;;;;;2.40;1.42;;;;;;;15.64;49.17;97561.41;5074308;28;20025;-29
2021/12/31 02:44:51;;;;;;;1.65;1.10;;;;;;;15.58;49.49;97556.91;5074128;28;20111;-29
2021/12/31 02:47:17;;;;;;;2.15;1.17;;;;;;;15.66;49.13;97556.28;5073799;28;20016;-29
2021/12/31 02:49:44;;;;;;;1.27;1.00;;;;;;;15.67;49.14;97557.06;5074019;28;20433;-28
2021/12/31 02:52:12;;;;;;;3.50;1.20;;;;;;;15.60;49.34;97568.94;5073848;28;20095;-29
2021/12/31 02:54:43;;;;;;;2.00;1.25;;;;;;;15.67;49.22;97566.03;5073805;28;20027;-29
2021/12/31 02:57:09;;;;;;;1.70;0.90;;;;;;;15.67;49.38;97562.53;5073830;28;20024;-31
2021/12/31 02:59:35;;;;;;;1.60;1.20;;;;;;;15.72;49.42;97567.44;5073853;28;20037;-29
2021/12/31 03:02:03;;;;;;;2.03;1.30;;;;;;;15.65;49.42;97573.13;5073852;28;20124;-29
2021/12/31 03:04:30;;;;;;;1.55;1.08;;;;;;;15.62;49.03;97565.78;5074093;28;20116;-29
2021/12/31 03:06:57;;;;;;;1.40;1.10;;;;;;;15.61;49.37;97567.75;5073678;28;20024;-29
2021/12/31 03:09:24;;;;;;;2.80;1.00;;;;;;;15.65;49.21;97570.38;5073593;28;20024;-29
2021/12/31 03:11:56;;;;;;;2.72;1.20;;;;;;;15.62;49.56;97571.25;5073786;28;20464;-28
2021/12/31 03:14:22;;;;;;;1.92;1.10;;;;;;;15.59;49.34;97575.59;5073611;28;20028;-28
2021/12/31 03:16:48;;;;;;;1.60;1.05;;;;;;;15.55;49.39;97579.66;5073695;28;20460;-29
2021/12/31 03:19:15;;;;;;;2.00;1.42;;;;;;;15.60;49.51;97576.38;5073328;28;20044;-28
2021/12/31 03:21:40;;;;;;;1.98;1.02;;;;;;;15.68;49.36;97564.06;5073503;28;20095;-28
2021/12/31 03:24:06;;;;;;;2.03;0.98;;;;;;;15.57;49.52;97571.78;5106049;28;20116;-29
2021/12/31 03:26:31;;;;;;;1.58;1.02;;;;;;;15.64;49.67;97568.84;5073286;28;20024;-29
2021/12/31 03:28:57;;;;;;;2.00;1.00;;;;;;;15.55;49.82;97563.25;5072830;28;20024;-28
2021/12/31 03:31:23;;;;;;;1.65;1.23;;;;;;;15.55;49.58;97572.22;5073407;28;20103;-29
2021/12/31 03:33:48;;;;;;;1.30;0.90;;;;;;;15.63;49.61;97570.06;5073411;28;20024;-29
2021/12/31 03:36:14;;;;;;;1.08;0.82;;;;;;;15.56;49.27;97565.56;5073162;28;20122;-29
2021/12/31 03:38:39;;;;;;;2.03;1.10;;;;;;;15.61;49.15;97572.44;5073462;28;20028;-29
2021/12/31 03:41:05;;;;;;;1.63;1.02;;;;;;;15.60;49.89;97568.16;5073302;28;20030;-29
2021/12/31 03:43:30;;;;;;;1.15;0.82;;;;;;;15.68;49.00;97564.06;5073290;28;20017;-28
2021/12/31 03:45:56;;;;;;;1.65;0.98;;;;;;;15.60;49.59;97566.22;5105670;28;20111;-28
2021/12/31 03:48:22;;;;;;;1.60;0.80;;;;;;;15.59;49.05;97572.88;5073097;28;20070;-30
2021/12/31 03:50:48;;;;;;;1.80;0.90;;;;;;;15.61;49.37;97569.72;5105468;28;20467;-29
2021/12/31 03:53:14;;;;;;;0.95;0.65;;;;;;;15.60;49.20;97568.16;5073065;28;20056;-30
2021/12/31 03:55:40;;;;;;;1.02;0.80;;;;;;;15.54;49.13;97561.69;5073172;28;20028;-29
2021/12/31 03:58:06;;;;;;;2.40;1.05;;;;;;;15.53;49.31;97568.34;5073117;28;20024;-28
2021/12/31 04:00:31;;;;;;;1.30;1.02;;;;;;;15.54;49.54;97572.63;5105757;28;20075;-29
2021/12/31 04:02:57;;;;;;;1.80;0.90;;;;;;;15.56;49.11;97578.47;5073013;28;20027;-29
2021/12/31 04:05:24;;;;;;;1.98;1.20;;;;;;;15.57;49.33;97582.72;5072919;28;20030;-28
2021/12/31 04:07:50;;;;;;;2.35;1.00;;;;;;;15.64;49.01;97586.03;5072914;28;20474;-29
2021/12/31 04:10:16;;;;;;;1.98;1.20;;;;;;;15.53;49.52;97573.81;5072918;28;20032;-28
2021/12/31 04:12:41;;;;;;;1.85;1.13;;;;;;;15.61;49.15;97583.38;5073171;28;20032;-28
2021/12/31 04:15:07;;;;;;;1.00;0.90;;;;;;;15.55;49.30;97579.66;5072773;28;20485;-29
2021/12/31 04:17:33;;;;;;;2.05;1.25;;;;;;;15.60;48.87;97584.56;5072746;28;20425;-30
2021/12/31 04:19:58;;;;;;;1.90;1.05;;;;;;;15.68;49.30;97594.16;5071454;28;20039;-29
2021/12/31 04:22:26;;;;;;;2.65;1.30;;;;;;;15.59;49.31;97588.50;5073034;28;20078;-30
2021/12/31 04:24:55;;;;;;;2.00;1.00;;;;;;;15.56;48.99;97583.91;5072697;28;20024;-29
2021/12/31 04:27:22;;;;;;;3.83;1.20;;;;;;;15.45;49.63;97582.19;5073074;28;20024;-30
2021/12/31 04:29:52;;;;;;;2.08;1.08;;;;;;;15.55;49.46;97577.69;5072965;28;20056;-29
2021/12/31 04:32:19;;;;;;;1.90;1.15;;;;;;;15.59;48.85;97583.81;5072669;28;20021;-29
2021/12/31 04:34:45;;;;;;;3.08;1.08;;;;;;;15.64;48.87;97585.25;5072677;28;20025;-29
2021/12/31 04:37:11;;;;;;;1.63;1.05;;;;;;;15.62;49.05;97582.19;5072610;28;20031;-29
2021/12/31 04:39:36;;;;;;;1.63;1.10;;;;;;;15.50;49.39;97572.69;5072532;28;20099;-29
2021/12/31 04:42:02;;;;;;;1.95;1.10;;;;;;;15.54;49.38;97586.28;5075979;28;20059;-29
2021/12/31 04:44:28;;;;;;;1.50;1.08;;;;;;;15.53;49.59;97591.00;5076619;28;20385;-29
2021/12/31 04:46:53;;;;;;;1.83;1.00;;;;;;;15.52;49.20;97577.75;5076602;28;20100;-29
2021/12/31 04:49:19;;;;;;;1.80;1.13;;;;;;;15.52;49.02;97583.22;5076450;28;20074;-28
2021/12/31 04:51:44;;;;;;;2.13;1.40;;;;;;;15.47;49.16;97584.50;5076150;28;20306;-29
2021/12/31 04:54:15;;;;;;;1.27;0.90;;;;;;;15.46;49.29;97575.53;5076179;28;20107;-29
2021/12/31 04:56:43;;;;;;;1.85;1.00;;;;;;;15.55;49.32;97579.66;5076402;28;20116;-28
2021/12/31 04:59:09;;;;;;;2.40;1.10;;;;;;;15.44;49.44;97583.41;5076270;28;20394;-28
2021/12/31 05:01:35;;;;;;;1.67;1.00;;;;;;;15.44;49.76;97585.38;5076158;28;20111;-29
2021/12/31 05:04:00;;;;;;;1.40;1.00;;;;;;;15.51;49.28;97581.66;5076056;28;20028;-29
2021/12/31 05:06:26;;;;;;;2.10;1.08;;;;;;;15.53;49.02;97588.25;5075849;28;20485;-29
2021/12/31 05:08:52;;;;;;;1.50;1.10;;;;;;;15.48;49.09;97582.53;5076025;28;20024;-29
2021/12/31 05:11:17;;;;;;;1.83;1.27;;;;;;;15.45;49.26;97590.38;5076025;28;20035;-29
2021/12/31 05:13:43;;;;;;;1.38;1.10;;;;;;;15.43;49.39;97589.31;5075909;28;20082;-29
2021/12/31 05:16:08;;;;;;;2.10;1.20;;;;;;;15.51;49.40;97587.13;5076035;28;20028;-30
2021/12/31 05:18:33;;;;;;;1.52;1.15;;;;;;;15.49;49.35;97590.31;5076018;28;20081;-29
2021/12/31 05:20:59;;;;;;;1.50;0.93;;;;;;;15.45;49.61;97593.13;5075773;28;20031;-30
2021/12/31 05:23:24;;;;;;;1.30;1.10;;;;;;;15.48;48.85;97601.66;5075679;28;20036;-28
2021/12/31 05:25:50;;;;;;;1.40;1.05;;;;;;;15.49;49.07;97603.19;5108316;28;20025;-29
2021/12/31 05:28:16;;;;;;;1.60;1.00;;;;;;;15.41;49.23;97605.38;5075641;28;20109;-29
2021/12/31 05:30:41;;;;;;;1.98;1.10;;;;;;;15.39;49.46;97600.31;5108379;28;20044;-29
2021/12/31 05:33:07;;;;;;;1.30;1.10;;;;;;;15.39;49.83;97610.47;5075436;28;20025;-28
2021/12/31 05:35:32;;;;;;;1.73;1.20;;;;;;;15.49;49.36;97611.41;5075619;28;20099;-28
2021/12/31 05:37:58;;;;;;;1.70;1.10;;;;;;;15.46;49.26;97613.03;5075484;28;20467;-29
2021/12/31 05:40:24;;;;;;;1.92;1.20;;;;;;;15.43;49.20;97606.47;5075662;28;20021;-29
2021/12/31 05:42:50;;;;;;;1.75;1.40;;;;;;;15.49;49.31;97614.13;5075313;28;20063;-28
2021/12/31 05:45:15;;;;;;;1.75;1.10;;;;;;;15.35;49.61;97605.09;5075369;28;20449;-28
2021/12/31 05:47:41;;;;;;;1.70;1.10;;;;;;;15.45;49.47;97603.31;5075276;28;20025;-28
2021/12/31 05:50:18;;;;;;;2.25;1.55;;;;;;;15.43;48.99;97602.97;5075424;28;20031;-29
2021/12/31 05:52:44;;;;;;;2.08;1.45;;;;;;;15.37;49.63;97605.44;5074139;28;20052;-29
2021/12/31 05:55:09;;;;;;;1.27;1.17;;;;;;;15.35;49.42;97612.53;5074967;28;20028;-29
2021/12/31 05:57:35;;;;;;;1.77;1.10;;;;;;;15.36;49.64;97601.16;5075088;28;20086;-28
2021/12/31 06:00:00;;;;;;;1.70;1.27;;;;;;;15.30;49.75;97610.34;5075061;28;20048;-29
2021/12/31 06:02:26;;;;;;;2.03;1.00;;;;;;;15.40;49.32;97599.13;5074783;28;20443;-28
2021/12/31 06:04:51;;;;;;;3.80;1.30;;;;;;;15.45;49.10;97595.13;5075259;28;20074;-29
2021/12/31 06:07:17;;;;;;;1.83;1.30;;;;;;;15.39;49.67;97599.56;5107538;28;20025;-28
2021/12/31 06:09:42;;;;;;;5.00;1.38;;;;;;;15.37;49.42;97602.72;5074912;28;20020;-29
2021/12/31 06:12:08;;;;;;;1.73;1.10;;;;;;;15.30;49.51;97597.44;5075336;28;20024;-28
2021/12/31 06:14:33;;;;;;;2.42;1.30;;;;;;;15.33;49.16;97599.28;5074811;28;20052;-28
2021/12/31 06:17:06;;;;;;;2.17;1.10;;;;;;;15.33;49.49;97596.56;5074675;28;20021;-29
2021/12/31 06:19:31;;;;;;;2.25;1.20;;;;;;;15.34;49.72;97606.28;5074739;28;20025;-29
2021/12/31 06:21:58;;;;;;;3.17;1.50;;;;;;;15.38;49.19;97601.50;5074532;28;20031;-29
2021/12/31 06:24:23;;;;;;;2.40;1.38;;;;;;;15.43;49.25;97609.22;5074408;28;20032;-28
2021/12/31 06:26:49;;;;;;;2.20;1.20;;;;;;;15.43;49.09;97609.22;5074531;28;20028;-29
2021/12/31 06:29:14;;;;;;;3.35;1.30;;;;;;;15.37;48.97;97610.91;5074538;28;20024;-29
2021/12/31 06:31:40;;;;;;;1.58;0.90;;;;;;;15.35;49.27;97612.53;5074983;28;20033;-29
2021/12/31 06:34:05;;;;;;;1.75;1.23;;;;;;;15.43;49.27;97603.75;5106909;28;20035;-29
2021/12/31 06:36:31;;;;;;;2.17;1.33;;;;;;;15.42;49.21;97618.59;5074291;28;20019;-29
2021/12/31 06:38:57;;;;;;;5.07;1.60;;;;;;;15.42;48.86;97615.88;5074537;28;20051;-28
2021/12/31 06:41:23;;;;;;;3.05;1.50;;;;;;;15.36;49.26;97628.50;5074240;28;20078;-29
2021/12/31 06:43:49;;;;;;;2.80;1.40;;;;;;;15.38;49.04;97623.38;5074091;28;20016;-28
2021/12/31 06:46:14;;;;;;;1.92;1.38;;;;;;;15.42;49.20;97618.59;5073964;28;20035;-29
2021/12/31 06:48:40;;;;;;;1.67;1.33;;;;;;;15.37;48.88;97618.34;5074106;28;20065;-29
2021/12/31 06:51:05;;;;;;;2.25;1.63;;;;;;;15.43;49.07;97631.06;5073723;28;20044;-28
2021/12/31 06:53:31;;;;;;;3.95;1.60;;;;;;;15.45;49.09;97620.47;5074347;28;20111;-28
2021/12/31 06:55:56;;;;;;;2.55;1.33;;;;;;;15.51;48.99;97623.44;5087294;28;20031;-29
2021/12/31 06:58:22;;;;;;;2.90;1.67;;;;;;;15.39;49.07;97635.84;5092085;28;20387;-28
2021/12/31 07:00:47;;;;;;;2.50;1.73;;;;;;;15.42;48.91;97639.69;5092193;28;20023;-29
2021/12/31 07:03:13;;;;;;;5.22;1.50;;;;;;;15.39;49.04;97635.84;5091990;28;20088;-29
2021/12/31 07:05:43;;;;;;;5.13;1.70;;;;;;;15.46;48.80;97630.19;5092097;28;20032;-29
2021/12/31 07:08:09;;;;;;;2.70;1.65;;;;;;;15.37;49.22;97640.97;5091910;28;20080;-28
2021/12/31 07:10:35;;;;;;;2.08;1.73;;;;;;;15.42;49.03;97637.75;5092122;28;20024;-29
2021/12/31 07:13:05;;;;;;;4.40;1.58;;;;;;;15.43;49.13;97647.47;5091645;28;20020;-29
2021/12/31 07:15:31;;;;;;;2.75;1.67;;;;;;;15.44;49.05;97635.34;5092142;28;20028;-29
2021/12/31 07:17:56;;;;;;;3.13;1.77;;;;;;;15.43;48.99;97643.97;5091709;28;20024;-29
2021/12/31 07:20:21;;;;;;;3.05;1.75;;;;;;;15.34;49.22;97646.53;5091709;28;20031;-29
2021/12/31 07:22:48;;;;;;;3.85;1.55;;;;;;;15.40;49.28;97642.88;5091722;28;20016;-28
2021/12/31 07:25:13;;;;;;;3.15;1.33;;;;;;;15.41;48.94;97649.88;5091839;28;20433;-29
2021/12/31 07:27:39;;;;;;;3.35;1.75;;;;;;;15.41;49.07;97647.13;5091109;28;20055;-29
2021/12/31 07:30:05;;;;;;;3.72;1.75;;;;;;;15.36;49.33;97652.34;5090018;28;20036;-29
2021/12/31 07:32:37;;;;;;;2.97;1.60;;;;;;;15.41;49.05;97654.56;5091543;28;20020;-29
2021/12/31 07:35:04;;;;;;;4.10;1.63;;;;;;;15.44;49.50;97654.50;5090195;28;20092;-28
2021/12/31 07:37:29;;;;;;;2.97;1.80;;;;;;;15.45;49.09;97658.72;5091641;28;20135;-28
2021/12/31 07:40:00;;;;;;;3.42;2.22;;;;;;;15.49;48.87;97663.34;5089503;28;20123;-28
2021/12/31 07:42:26;;;;;;;4.40;1.88;;;;;;;15.45;49.05;97658.72;5089910;28;20434;-28
2021/12/31 07:44:51;;;;;;;5.07;2.00;;;;;;;15.42;49.31;97662.34;5091407;28;20111;-29
2021/12/31 07:47:17;;;;;;;4.78;2.53;;;;;;;15.31;49.57;97661.84;5091301;28;20028;-28
2021/12/31 07:49:43;;;;;;;7.35;2.92;;;;;;;15.36;49.54;97663.28;5091331;28;20035;-29
2021/12/31 07:52:08;;;;;;;4.10;2.63;;;;;;;15.30;49.67;97668.50;5091158;28;20052;-28
2021/12/31 07:54:34;;;;;;;4.85;3.05;;;;;;;15.37;49.51;97671.03;5090787;28;20044;-28
2021/12/31 07:56:59;;;;;;;4.30;3.10;;;;;;;15.36;49.68;97672.25;5090981;28;20024;-28
2021/12/31 07:59:25;;;;;;;6.28;2.80;;;;;;;15.37;49.40;97676.50;5091067;28;20046;-29
2021/12/31 08:01:50;;;;;;;4.55;2.80;;;;;;;15.35;49.73;97678.13;5091192;28;20403;-29
2021/12/31 08:04:15;;;;;;;4.97;2.95;;;;;;;15.41;49.35;97682.66;5091221;28;20028;-29
2021/12/31 08:06:41;;;;;;;8.10;2.95;;;;;;;15.37;49.43;97683.94;5090818;28;20028;-28
2021/12/31 08:09:06;;;;;;;5.13;2.80;;;;;;;15.41;49.48;97688.13;5091145;28;20038;-29
2021/12/31 08:11:32;;;;;;;5.82;3.10;;;;;;;15.38;49.72;97689.00;5091052;28;20032;-29
2021/12/31 08:13:57;;;;;;;6.28;3.17;;;;;;;15.40;49.66;97688.56;5091079;28;20035;-29
2021/12/31 08:16:22;;;;;;;5.90;2.92;;;;;;;15.42;49.63;97686.94;5093209;28;20024;-28
2021/12/31 08:18:48;;;;;;;5.50;2.97;;;;;;;15.41;49.67;97690.09;5095039;28;20028;-29
2021/12/31 08:21:13;;;;;;;7.88;3.00;;;;;;;15.42;49.76;97688.91;5095233;28;20371;-28
2021/12/31 08:23:39;;;;;;;6.95;2.90;;;;;;;15.50;49.67;97703.16;5095265;28;20024;-29
2021/12/31 08:26:05;;;;;;;5.45;3.03;;;;;;;15.41;49.82;97701.03;5094858;28;20117;-28
2021/12/31 08:28:30;;;;;;;4.40;3.05;;;;;;;15.35;49.93;97695.31;5095168;28;20057;-28
2021/12/31 08:30:58;;;;;;;5.40;2.92;;;;;;;15.31;50.34;97696.59;5094858;28;20082;-28
2021/12/31 08:33:24;;;;;;;5.38;3.10;;;;;;;15.37;50.18;97703.84;5094800;28;20028;-29
2021/12/31 08:35:49;;;;;;;5.15;3.03;;;;;;;15.35;50.36;97705.47;5095028;28;20373;-29
2021/12/31 08:38:15;;;;;;;3.70;2.90;;;;;;;15.47;50.14;97707.50;5092975;28;20477;-29
2021/12/31 08:40:40;;;;;;;6.05;3.25;;;;;;;15.50;50.11;97706.66;5094789;28;20027;-29
2021/12/31 08:43:07;;;;;;;6.00;3.75;;;;;;;15.51;50.15;97712.91;5094568;28;20019;-29
2021/12/31 08:45:33;;;;;;;4.32;3.17;;;;;;;15.52;50.22;97714.44;5094784;28;20039;-28
2021/12/31 08:47:59;;;;;;;5.63;3.30;;;;;;;15.51;50.32;97710.16;5094849;28;20028;-28
2021/12/31 08:50:26;;;;;;;5.43;3.47;;;;;;;15.51;50.33;97705.47;5093186;28;20032;-29
2021/12/31 08:52:51;;;;;;;4.88;3.42;;;;;;;15.52;50.48;97714.44;5094498;28;20086;-28
2021/12/31 08:55:17;;;;;;;6.88;3.47;;;;;;;15.45;50.63;97715.41;5094378;28;20052;-29
2021/12/31 08:57:43;;;;;;;6.43;3.63;;;;;;;15.49;50.61;97715.28;5094580;28;20065;-28
2021/12/31 09:00:10;;;;;;;5.75;3.40;;;;;;;15.53;50.48;97722.22;5094558;28;20404;-29
2021/12/31 09:02:35;;;;;;;4.22;3.13;;;;;;;15.47;50.83;97723.91;5094024;28;20028;-29
2021/12/31 09:05:02;;;;;;;5.03;3.03;;;;;;;15.42;51.08;97721.72;5093866;28;20035;-29
2021/12/31 09:07:27;;;;;;;6.07;3.30;;;;;;;15.48;50.99;97724.69;5094162;28;20028;-30
2021/12/31 09:09:53;;;;;;;4.75;3.10;;;;;;;15.44;51.12;97728.31;5094406;28;20481;-29
2021/12/31 09:12:18;;;;;;;4.05;2.88;;;;;;;15.42;51.19;97722.47;5094390;28;20109;-29
2021/12/31 09:14:44;;;;;;;5.03;3.30;;;;;;;15.46;51.05;97725.88;5094489;28;20024;-28
2021/12/31 09:17:09;;;;;;;4.97;3.35;;;;;;;15.55;50.78;97730.81;5094227;28;20103;-30
2021/12/31 09:19:35;;;;;;;4.07;2.40;;;;;;;15.50;51.21;97738.72;5093756;28;20024;-29
2021/12/31 09:22:00;;;;;;;5.47;2.67;;;;;;;15.47;51.06;97734.84;5092747;28;20028;-29
2021/12/31 09:24:26;;;;;;;4.32;2.97;;;;;;;15.53;51.07;97733.16;5093925;28;20076;-29
2021/12/31 09:26:51;;;;;;;3.22;2.30;;;;;;;15.52;50.99;97736.31;5093056;28;20035;-29
2021/12/31 09:29:18;;;;;;;4.32;2.63;;;;;;;15.57;51.06;97744.06;5093453;28;20161;-29
2021/12/31 09:31:45;;;;;;;4.03;3.00;;;;;;;15.62;50.82;97751.72;5093589;28;20691;-28
2021/12/31 09:34:10;;;;;;;4.30;2.33;;;;;;;15.64;50.85;97744.63;5094070;28;20032;-29
2021/12/31 09:36:36;;;;;;;3.08;2.55;;;;;;;15.52;51.38;97750.00;5094068;28;20024;-28
2021/12/31 09:39:01;;;;;;;5.25;2.60;;;;;;;15.56;51.21;97747.97;5092167;28;20039;-28
2021/12/31 09:41:27;;;;;;;3.50;2.47;;;;;;;15.60;51.39;97748.66;5093768;28;20081;-27
2021/12/31 09:43:52;;;;;;;3.78;2.80;;;;;;;15.54;51.40;97744.88;5093553;28;20028;-30
2021/12/31 09:46:19;;;;;;;3.88;2.33;;;;;;;15.52;51.51;97747.25;5093593;28;20040;-28
2021/12/31 09:48:44;;;;;;;4.88;2.63;;;;;;;15.59;51.25;97744.38;5093580;28;20020;-29
2021/12/31 09:51:10;;;;;;;3.30;2.55;;;;;;;15.65;51.09;97745.41;5091716;28;20094;-29
2021/12/31 09:53:35;;;;;;;5.00;2.53;;;;;;;15.60;51.23;97751.38;5093362;28;20024;-28
2021/12/31 09:56:01;;;;;;;3.75;2.60;;;;;;;15.57;51.44;97744.81;5092982;28;20387;-29
2021/12/31 09:58:27;;;;;;;2.97;2.40;;;;;;;15.62;51.53;97740.78;5093521;28;20028;-30
2021/12/31 10:00:57;;;;;;;4.47;3.05;;;;;;;15.67;51.32;97748.50;5093491;28;20526;-29
2021/12/31 10:03:31;;;;;;;4.55;2.58;;;;;;;15.64;51.49;97743.88;5093541;28;20031;-29
2021/12/31 10:06:00;;;;;;;4.05;2.30;;;;;;;15.65;51.28;97743.44;5093303;28;20028;-29
2021/12/31 10:08:27;;;;;;;3.38;2.53;;;;;;;15.68;51.39;97750.03;5093252;28;20051;-29
2021/12/31 10:11:05;;;;;;;3.63;2.40;;;;;;;15.72;51.27;97743.25;5091619;28;20038;-28
2021/12/31 10:13:33;;;;;;;3.53;2.30;;;;;;;15.72;51.35;97745.22;5093242;28;20026;-29
2021/12/31 10:15:59;;;;;;;3.10;2.30;;;;;;;15.72;51.29;97743.25;5092794;28;20085;-29
2021/12/31 10:18:36;;;;;;;3.53;2.50;;;;;;;15.77;51.24;97748.22;5092661;28;20020;-28
2021/12/31 10:21:04;;;;;;;3.75;2.50;;;;;;;15.73;51.38;97744.78;5094035;28;20442;-29
2021/12/31 10:23:31;;;;;;;3.47;2.28;;;;;;;15.71;51.43;97749.16;5093619;28;20639;-29
2021/12/31 10:26:11;;;;;;;2.45;2.08;;;;;;;15.70;51.56;97753.09;5093593;28;20028;-28
2021/12/31 10:28:51;;;;;;;3.65;2.05;;;;;;;15.65;51.75;97751.66;5093753;28;20485;-29
2021/12/31 10:31:16;;;;;;;2.78;1.92;;;;;;;15.74;51.60;97748.31;5094676;28;20107;-28
2021/12/31 10:33:46;;;;;;;3.45;2.00;;;;;;;15.62;51.78;97741.56;5094683;28;20063;-29
2021/12/31 10:36:34;;;;;;;2.65;1.90;;;;;;;15.64;52.00;97738.41;5094526;28;20046;-29
2021/12/31 10:39:03;;;;;;;3.00;2.00;;;;;;;15.70;51.69;97733.97;5093786;28;20020;-29
2021/12/31 10:41:30;;;;;;;3.03;1.80;;;;;;;15.75;51.82;97733.44;5094636;28;20110;-28
2021/12/31 10:43:59;;;;;;;3.80;2.00;;;;;;;15.80;51.55;97724.72;5094421;28;20032;-28
2021/12/31 10:46:25;;;;;;;3.20;2.20;;;;;;;15.71;51.85;97728.03;5102787;28;20028;-29
2021/12/31 10:48:54;;;;;;;2.97;2.17;;;;;;;15.74;51.66;97723.69;5095243;28;20103;-29
2021/12/31 10:51:39;;;;;;;2.85;2.20;;;;;;;15.68;52.05;97719.94;5093999;28;20047;-29
2021/12/31 10:54:47;;;;;;;2.70;2.00;;;;;;;15.77;51.90;97714.63;5094299;28;20032;-29
2021/12/31 10:57:37;;;;;;;4.72;1.90;;;;;;;15.70;52.01;97710.09;5094253;28;20020;-30
2021/12/31 11:00:05;;;;;;;2.67;1.90;;;;;;;15.84;51.86;97711.69;5094187;28;20020;-29
2021/12/31 11:02:33;;;;;;;2.22;1.65;;;;;;;15.79;52.08;97709.50;5094016;28;20035;-29
2021/12/31 11:04:59;;;;;;;2.33;2.00;;;;;;;15.75;51.97;97706.09;5094081;28;20359;-29
2021/12/31 11:07:26;;;;;;;2.55;1.85;;;;;;;15.78;51.93;97699.75;5094068;28;20050;-29
2021/12/31 11:09:52;;;;;;;2.70;1.90;;;;;;;15.74;52.08;97699.06;5093788;28;20063;-30
2021/12/31 11:12:17;;;;;;;2.13;1.73;;;;;;;15.86;51.69;97700.34;5089103;28;20066;-29
2021/12/31 11:14:43;;;;;;;3.63;2.10;;;;;;;15.77;52.03;97703.69;5071444;28;20028;-29
2021/12/31 11:17:08;;;;;;;4.40;1.85;;;;;;;15.78;52.13;97697.03;5071495;28;20111;-29
2021/12/31 11:19:39;;;;;;;2.60;1.90;;;;;;;15.88;51.90;97687.78;5078297;28;20783;-29
2021/12/31 11:22:06;;;;;;;3.40;1.80;;;;;;;15.89;51.77;97683.06;5111126;28;20027;-29
2021/12/31 11:24:36;;;;;;;2.20;1.73;;;;;;;15.87;51.94;97686.22;5096897;28;20036;-30
2021/12/31 11:27:42;;;;;;;2.95;1.70;;;;;;;15.87;51.89;97678.03;5092869;28;20028;-28
2021/12/31 11:30:43;;;;;;;2.67;1.77;;;;;;;15.79;52.23;97684.88;5090226;28;20031;-30
2021/12/31 11:33:14;;;;;;;2.13;1.70;;;;;;;15.71;52.42;97687.03;5091544;28;20031;-28
2021/12/31 11:35:42;;;;;;;2.80;2.00;;;;;;;15.79;52.25;97685.66;5091507;28;20031;-29
2021/12/31 11:38:15;;;;;;;2.45;1.60;;;;;;;15.88;51.78;97674.09;5090989;28;20039;-29
2021/12/31 11:40:50;;;;;;;1.40;1.30;;;;;;;15.83;51.89;97691.00;5091506;28;20537;-29